sensor_id;sensor_type;location;lat;lon;timestamp;pressure;altitude;pressure_sealevel;temperature;humidity
72975;BME280;61166;54.228;37.632;2022-07-11T00:02:01;98669.31;;;19.04;73.05
72975;BME280;61166;54.228;37.632;2022-07-11T00:04:28;98660.25;;;19.05;73.18
72975;BME280;61166;54.228;37.632;2022-07-11T00:06:55;98669.31;;;19.04;73.32
72975;BME280;61166;54.228;37.632;2022-07-11T00:09:20;98665.88;;;18.98;73.56
72975;BME280;61166;54.228;37.632;2022-07-11T00:11:46;98668.31;;;18.95;73.68
72975;BME280;61166;54.228;37.632;2022-07-11T00:14:11;98665.09;;;18.98;73.81
72975;BME280;61166;54.228;37.632;2022-07-11T00:16:37;98660.84;;;18.97;73.96
72975;BME280;61166;54.228;37.632;2022-07-11T00:19:02;98656.03;;;18.99;73.43
72975;BME280;61166;54.228;37.632;2022-07-11T00:21:30;98644.34;;;18.95;74.37
72975;BME280;61166;54.228;37.632;2022-07-11T00:23:56;98637.41;;;18.94;74.17
72975;BME280;61166;54.228;37.632;2022-07-11T00:26:22;98619.03;;;18.92;74.33
72975;BME280;61166;54.228;37.632;2022-07-11T00:28:48;98619.56;;;18.94;74.47
72975;BME280;61166;54.228;37.632;2022-07-11T00:31:13;98617.72;;;18.90;74.36
72975;BME280;61166;54.228;37.632;2022-07-11T00:33:39;98623.84;;;18.90;74.50
72975;BME280;61166;54.228;37.632;2022-07-11T00:36:05;98615.56;;;18.92;74.51
72975;BME280;61166;54.228;37.632;2022-07-11T00:38:30;98612.41;;;18.90;74.63
72975;BME280;61166;54.228;37.632;2022-07-11T00:40:56;98611.41;;;18.80;74.98
72975;BME280;61166;54.228;37.632;2022-07-11T00:43:36;98607.44;;;18.78;74.97
72975;BME280;61166;54.228;37.632;2022-07-11T00:46:03;98605.28;;;18.80;74.94
72975;BME280;61166;54.228;37.632;2022-07-11T00:48:28;98610.41;;;18.71;75.45
72975;BME280;61166;54.228;37.632;2022-07-11T00:50:54;98614.22;;;18.55;76.50
72975;BME280;61166;54.228;37.632;2022-07-11T00:53:20;98601.19;;;18.54;76.61
72975;BME280;61166;54.228;37.632;2022-07-11T00:55:47;98597.72;;;18.53;76.70
72975;BME280;61166;54.228;37.632;2022-07-11T00:58:12;98612.63;;;18.54;76.41
72975;BME280;61166;54.228;37.632;2022-07-11T01:00:39;98608.19;;;18.44;77.33
72975;BME280;61166;54.228;37.632;2022-07-11T01:03:05;98607.16;;;18.40;77.72
72975;BME280;61166;54.228;37.632;2022-07-11T01:05:30;98608.00;;;18.31;78.15
72975;BME280;61166;54.228;37.632;2022-07-11T01:07:56;98627.97;;;18.28;78.12
72975;BME280;61166;54.228;37.632;2022-07-11T01:10:22;98618.91;;;18.34;77.86
72975;BME280;61166;54.228;37.632;2022-07-11T01:12:49;98607.19;;;18.35;77.97
72975;BME280;61166;54.228;37.632;2022-07-11T01:15:14;98612.19;;;18.42;77.91
72975;BME280;61166;54.228;37.632;2022-07-11T01:17:40;98616.91;;;18.50;77.42
72975;BME280;61166;54.228;37.632;2022-07-11T01:20:06;98616.88;;;18.60;76.91
72975;BME280;61166;54.228;37.632;2022-07-11T01:22:36;98613.09;;;18.66;76.79
72975;BME280;61166;54.228;37.632;2022-07-11T01:25:02;98603.94;;;18.83;75.92
72975;BME280;61166;54.228;37.632;2022-07-11T01:27:28;98609.19;;;18.93;75.28
72975;BME280;61166;54.228;37.632;2022-07-11T01:29:54;98608.53;;;19.06;74.69
72975;BME280;61166;54.228;37.632;2022-07-11T01:32:20;98608.53;;;19.06;74.91
72975;BME280;61166;54.228;37.632;2022-07-11T01:34:46;98604.19;;;19.10;74.78
72975;BME280;61166;54.228;37.632;2022-07-11T01:37:11;98610.06;;;19.12;74.55
72975;BME280;61166;54.228;37.632;2022-07-11T01:39:37;98606.25;;;19.18;74.51
72975;BME280;61166;54.228;37.632;2022-07-11T01:42:02;98603.09;;;19.16;74.61
72975;BME280;61166;54.228;37.632;2022-07-11T01:44:28;98598.34;;;19.08;74.79
72975;BME280;61166;54.228;37.632;2022-07-11T01:46:53;98601.66;;;19.00;75.28
72975;BME280;61166;54.228;37.632;2022-07-11T01:49:19;98609.19;;;18.93;75.69
72975;BME280;61166;54.228;37.632;2022-07-11T01:51:44;98601.78;;;18.85;76.08
72975;BME280;61166;54.228;37.632;2022-07-11T01:54:10;98603.38;;;18.86;75.93
72975;BME280;61166;54.228;37.632;2022-07-11T01:56:35;98604.72;;;18.83;76.29
72975;BME280;61166;54.228;37.632;2022-07-11T01:59:01;98598.00;;;18.91;75.77
72975;BME280;61166;54.228;37.632;2022-07-11T02:01:27;98598.25;;;18.94;76.04
72975;BME280;61166;54.228;37.632;2022-07-11T02:03:53;98587.53;;;18.99;75.93
72975;BME280;61166;54.228;37.632;2022-07-11T02:06:20;98585.97;;;19.22;75.06
72975;BME280;61166;54.228;37.632;2022-07-11T02:08:46;98596.88;;;19.50;73.80
72975;BME280;61166;54.228;37.632;2022-07-11T02:11:11;98597.41;;;19.75;72.81
72975;BME280;61166;54.228;37.632;2022-07-11T02:13:36;98594.97;;;19.79;72.58
72975;BME280;61166;54.228;37.632;2022-07-11T02:16:02;98593.38;;;19.78;72.57
72975;BME280;61166;54.228;37.632;2022-07-11T02:18:28;98592.84;;;19.76;72.21
72975;BME280;61166;54.228;37.632;2022-07-11T02:20:54;98594.91;;;19.84;72.09
72975;BME280;61166;54.228;37.632;2022-07-11T02:23:20;98587.72;;;20.03;70.88
72975;BME280;61166;54.228;37.632;2022-07-11T02:25:47;98585.13;;;20.17;70.32
72975;BME280;61166;54.228;37.632;2022-07-11T02:28:13;98589.38;;;20.18;69.64
72975;BME280;61166;54.228;37.632;2022-07-11T02:30:42;98583.41;;;20.45;69.42
72975;BME280;61166;54.228;37.632;2022-07-11T02:33:08;98586.19;;;20.72;68.29
72975;BME280;61166;54.228;37.632;2022-07-11T02:35:38;98576.00;;;21.21;67.04
72975;BME280;61166;54.228;37.632;2022-07-11T02:38:04;98576.81;;;21.76;65.13
72975;BME280;61166;54.228;37.632;2022-07-11T02:40:30;98578.81;;;22.34;62.85
72975;BME280;61166;54.228;37.632;2022-07-11T02:42:55;98578.47;;;22.49;62.04
72975;BME280;61166;54.228;37.632;2022-07-11T02:45:21;98582.09;;;22.76;61.17
72975;BME280;61166;54.228;37.632;2022-07-11T02:47:46;98577.59;;;24.03;57.35
72975;BME280;61166;54.228;37.632;2022-07-11T02:50:13;98583.78;;;24.21;56.36
72975;BME280;61166;54.228;37.632;2022-07-11T02:52:40;98580.31;;;24.29;55.59
72975;BME280;61166;54.228;37.632;2022-07-11T02:55:08;98575.66;;;24.99;53.91
72975;BME280;61166;54.228;37.632;2022-07-11T02:57:34;98575.50;;;25.04;53.87
72975;BME280;61166;54.228;37.632;2022-07-11T03:00:00;98571.31;;;25.62;52.15
72975;BME280;61166;54.228;37.632;2022-07-11T03:02:27;98579.28;;;25.12;53.51
72975;BME280;61166;54.228;37.632;2022-07-11T03:04:52;98567.81;;;25.70;52.08
72975;BME280;61166;54.228;37.632;2022-07-11T03:07:18;98567.50;;;26.13;51.01
72975;BME280;61166;54.228;37.632;2022-07-11T03:09:43;98562.19;;;26.05;50.92
72975;BME280;61166;54.228;37.632;2022-07-11T03:12:09;98564.50;;;25.64;51.86
72975;BME280;61166;54.228;37.632;2022-07-11T03:14:34;98572.34;;;25.02;52.87
72975;BME280;61166;54.228;37.632;2022-07-11T03:17:00;98568.38;;;24.91;53.66
72975;BME280;61166;54.228;37.632;2022-07-11T03:19:25;98566.69;;;24.78;54.15
72975;BME280;61166;54.228;37.632;2022-07-11T03:21:51;98556.97;;;25.11;53.36
72975;BME280;61166;54.228;37.632;2022-07-11T03:24:17;98561.56;;;26.49;49.78
72975;BME280;61166;54.228;37.632;2022-07-11T03:26:43;98549.03;;;27.84;46.59
72975;BME280;61166;54.228;37.632;2022-07-11T03:29:08;98555.38;;;28.56;45.51
72975;BME280;61166;54.228;37.632;2022-07-11T03:31:34;98552.13;;;28.94;43.86
72975;BME280;61166;54.228;37.632;2022-07-11T03:34:00;98552.56;;;28.96;43.74
72975;BME280;61166;54.228;37.632;2022-07-11T03:36:25;98552.53;;;28.80;44.32
72975;BME280;61166;54.228;37.632;2022-07-11T03:38:51;98551.09;;;28.99;43.87
72975;BME280;61166;54.228;37.632;2022-07-11T03:41:17;98541.66;;;29.55;42.53
72975;BME280;61166;54.228;37.632;2022-07-11T03:43:42;98555.97;;;30.26;40.35
72975;BME280;61166;54.228;37.632;2022-07-11T03:46:07;98548.34;;;30.32;39.70
72975;BME280;61166;54.228;37.632;2022-07-11T03:48:33;98546.50;;;30.16;40.37
72975;BME280;61166;54.228;37.632;2022-07-11T03:50:59;98551.63;;;30.41;38.32
72975;BME280;61166;54.228;37.632;2022-07-11T03:53:24;98551.38;;;31.11;37.68
72975;BME280;61166;54.228;37.632;2022-07-11T03:55:49;98545.34;;;31.44;37.18
72975;BME280;61166;54.228;37.632;2022-07-11T03:58:15;98554.63;;;31.16;36.63
72975;BME280;61166;54.228;37.632;2022-07-11T04:00:40;98550.34;;;31.42;36.51
72975;BME280;61166;54.228;37.632;2022-07-11T04:03:05;98554.38;;;31.51;35.98
72975;BME280;61166;54.228;37.632;2022-07-11T04:05:31;98551.03;;;32.81;34.09
72975;BME280;61166;54.228;37.632;2022-07-11T04:07:57;98542.91;;;33.33;33.42
72975;BME280;61166;54.228;37.632;2022-07-11T04:10:23;98540.56;;;33.86;31.46
72975;BME280;61166;54.228;37.632;2022-07-11T04:12:49;98535.78;;;33.21;32.42
72975;BME280;61166;54.228;37.632;2022-07-11T04:15:14;98536.63;;;32.81;32.66
72975;BME280;61166;54.228;37.632;2022-07-11T04:17:39;98535.13;;;33.93;31.47
72975;BME280;61166;54.228;37.632;2022-07-11T04:20:06;98529.25;;;33.84;31.48
72975;BME280;61166;54.228;37.632;2022-07-11T04:22:32;98535.41;;;33.77;31.32
72975;BME280;61166;54.228;37.632;2022-07-11T04:24:57;98520.38;;;34.12;31.33
72975;BME280;61166;54.228;37.632;2022-07-11T04:27:23;98527.41;;;34.02;30.79
72975;BME280;61166;54.228;37.632;2022-07-11T04:29:50;98538.59;;;34.95;29.50
72975;BME280;61166;54.228;37.632;2022-07-11T04:32:16;98521.78;;;34.89;29.41
72975;BME280;61166;54.228;37.632;2022-07-11T04:34:41;98525.31;;;34.86;29.24
72975;BME280;61166;54.228;37.632;2022-07-11T04:37:07;98528.84;;;35.04;29.45
72975;BME280;61166;54.228;37.632;2022-07-11T04:39:32;98533.13;;;35.45;28.53
72975;BME280;61166;54.228;37.632;2022-07-11T04:41:58;98519.78;;;34.75;29.57
72975;BME280;61166;54.228;37.632;2022-07-11T04:44:25;98526.88;;;35.05;29.43
72975;BME280;61166;54.228;37.632;2022-07-11T04:46:51;98521.03;;;34.96;29.55
72975;BME280;61166;54.228;37.632;2022-07-11T04:49:16;98519.81;;;35.64;28.95
72975;BME280;61166;54.228;37.632;2022-07-11T04:51:42;98515.84;;;36.70;27.28
72975;BME280;61166;54.228;37.632;2022-07-11T04:54:07;98530.59;;;36.21;27.71
72975;BME280;61166;54.228;37.632;2022-07-11T04:56:34;98515.09;;;36.63;26.88
72975;BME280;61166;54.228;37.632;2022-07-11T04:58:59;98504.91;;;36.67;27.46
72975;BME280;61166;54.228;37.632;2022-07-11T05:01:26;98521.19;;;36.22;27.56
72975;BME280;61166;54.228;37.632;2022-07-11T05:03:54;98522.53;;;37.21;26.49
72975;BME280;61166;54.228;37.632;2022-07-11T05:06:19;98512.28;;;37.66;25.87
72975;BME280;61166;54.228;37.632;2022-07-11T05:08:45;98508.53;;;37.53;26.38
72975;BME280;61166;54.228;37.632;2022-07-11T05:11:11;98500.53;;;37.66;26.45
72975;BME280;61166;54.228;37.632;2022-07-11T05:13:36;98496.66;;;36.70;27.41
72975;BME280;61166;54.228;37.632;2022-07-11T05:16:03;98499.97;;;36.41;27.43
72975;BME280;61166;54.228;37.632;2022-07-11T05:18:28;98503.41;;;37.11;26.63
72975;BME280;61166;54.228;37.632;2022-07-11T05:20:54;98525.19;;;37.32;26.52
72975;BME280;61166;54.228;37.632;2022-07-11T05:23:19;98510.19;;;37.44;26.45
72975;BME280;61166;54.228;37.632;2022-07-11T05:25:45;98506.25;;;37.82;25.35
72975;BME280;61166;54.228;37.632;2022-07-11T05:28:10;98505.59;;;38.05;24.94
72975;BME280;61166;54.228;37.632;2022-07-11T05:30:36;98498.75;;;37.04;26.15
72975;BME280;61166;54.228;37.632;2022-07-11T05:33:01;98504.75;;;37.40;26.08
72975;BME280;61166;54.228;37.632;2022-07-11T05:35:27;98493.94;;;37.60;25.85
72975;BME280;61166;54.228;37.632;2022-07-11T05:37:52;98502.66;;;38.19;24.80
72975;BME280;61166;54.228;37.632;2022-07-11T05:40:17;98491.38;;;38.94;23.94
72975;BME280;61166;54.228;37.632;2022-07-11T05:42:43;98489.94;;;38.86;23.66
72975;BME280;61166;54.228;37.632;2022-07-11T05:45:09;98495.38;;;37.75;25.08
72975;BME280;61166;54.228;37.632;2022-07-11T05:47:34;98500.91;;;37.30;26.02
72975;BME280;61166;54.228;37.632;2022-07-11T05:50:00;98495.06;;;37.62;26.09
72975;BME280;61166;54.228;37.632;2022-07-11T05:52:25;98490.59;;;37.45;25.55
72975;BME280;61166;54.228;37.632;2022-07-11T05:54:51;98498.75;;;38.47;24.41
72975;BME280;61166;54.228;37.632;2022-07-11T05:57:16;98495.47;;;37.98;24.65
72975;BME280;61166;54.228;37.632;2022-07-11T05:59:42;98477.22;;;36.51;27.16
72975;BME280;61166;54.228;37.632;2022-07-11T06:02:07;98492.06;;;34.41;29.80
72975;BME280;61166;54.228;37.632;2022-07-11T06:04:34;98503.16;;;33.90;30.99
72975;BME280;61166;54.228;37.632;2022-07-11T06:06:59;98500.72;;;33.74;30.92
72975;BME280;61166;54.228;37.632;2022-07-11T06:09:25;98510.44;;;32.73;32.81
72975;BME280;61166;54.228;37.632;2022-07-11T06:11:50;98504.22;;;32.35;34.13
72975;BME280;61166;54.228;37.632;2022-07-11T06:14:17;98491.03;;;31.74;34.70
72975;BME280;61166;54.228;37.632;2022-07-11T06:16:42;98501.00;;;31.40;35.59
72975;BME280;61166;54.228;37.632;2022-07-11T06:19:08;98507.53;;;31.35;35.40
72975;BME280;61166;54.228;37.632;2022-07-11T06:21:33;98495.78;;;33.29;32.88
72975;BME280;61166;54.228;37.632;2022-07-11T06:23:58;98497.28;;;33.26;32.94
72975;BME280;61166;54.228;37.632;2022-07-11T06:26:24;98491.72;;;34.78;30.59
72975;BME280;61166;54.228;37.632;2022-07-11T06:28:50;98490.34;;;36.84;27.39
72975;BME280;61166;54.228;37.632;2022-07-11T06:31:15;98477.31;;;38.39;25.67
72975;BME280;61166;54.228;37.632;2022-07-11T06:33:42;98480.56;;;38.30;25.25
72975;BME280;61166;54.228;37.632;2022-07-11T06:36:07;98465.47;;;37.84;26.45
72975;BME280;61166;54.228;37.632;2022-07-11T06:38:33;98468.94;;;37.10;27.65
72975;BME280;61166;54.228;37.632;2022-07-11T06:40:59;98471.56;;;36.79;27.57
72975;BME280;61166;54.228;37.632;2022-07-11T06:43:25;98492.69;;;37.68;26.64
72975;BME280;61166;54.228;37.632;2022-07-11T06:45:50;98478.72;;;38.20;25.67
72975;BME280;61166;54.228;37.632;2022-07-11T06:48:16;98482.81;;;38.66;24.91
72975;BME280;61166;54.228;37.632;2022-07-11T06:50:42;98478.53;;;38.34;24.86
72975;BME280;61166;54.228;37.632;2022-07-11T06:53:08;98468.66;;;38.90;24.54
72975;BME280;61166;54.228;37.632;2022-07-11T06:55:33;98466.81;;;38.84;24.45
72975;BME280;61166;54.228;37.632;2022-07-11T06:58:00;98464.47;;;38.02;24.94
72975;BME280;61166;54.228;37.632;2022-07-11T07:00:26;98463.78;;;37.94;25.51
72975;BME280;61166;54.228;37.632;2022-07-11T07:02:56;98448.34;;;38.84;24.48
72975;BME280;61166;54.228;37.632;2022-07-11T07:05:23;98460.91;;;37.71;26.32
72975;BME280;61166;54.228;37.632;2022-07-11T07:07:49;98462.50;;;38.02;26.28
72975;BME280;61166;54.228;37.632;2022-07-11T07:10:14;98483.38;;;37.17;26.58
72975;BME280;61166;54.228;37.632;2022-07-11T07:12:39;98476.31;;;37.57;26.75
72975;BME280;61166;54.228;37.632;2022-07-11T07:15:06;98463.06;;;38.47;24.53
72975;BME280;61166;54.228;37.632;2022-07-11T07:17:31;98449.28;;;38.97;24.70
72975;BME280;61166;54.228;37.632;2022-07-11T07:19:57;98442.31;;;37.85;25.88
72975;BME280;61166;54.228;37.632;2022-07-11T07:22:23;98445.06;;;37.51;26.71
72975;BME280;61166;54.228;37.632;2022-07-11T07:24:48;98448.13;;;36.75;27.65
72975;BME280;61166;54.228;37.632;2022-07-11T07:27:14;98440.72;;;36.02;29.47
72975;BME280;61166;54.228;37.632;2022-07-11T07:29:39;98457.16;;;36.02;29.47
72975;BME280;61166;54.228;37.632;2022-07-11T07:32:05;98446.34;;;35.66;29.87
72975;BME280;61166;54.228;37.632;2022-07-11T07:34:31;98434.72;;;35.30;30.56
72975;BME280;61166;54.228;37.632;2022-07-11T07:36:57;98433.03;;;35.72;29.99
72975;BME280;61166;54.228;37.632;2022-07-11T07:39:23;98444.47;;;34.78;31.02
72975;BME280;61166;54.228;37.632;2022-07-11T07:41:48;98443.91;;;33.18;33.91
72975;BME280;61166;54.228;37.632;2022-07-11T07:44:13;98429.94;;;33.99;32.39
72975;BME280;61166;54.228;37.632;2022-07-11T07:46:39;98419.91;;;35.14;31.28
72975;BME280;61166;54.228;37.632;2022-07-11T07:49:04;98428.72;;;35.82;30.21
72975;BME280;61166;54.228;37.632;2022-07-11T07:51:30;98413.59;;;35.41;30.72
72975;BME280;61166;54.228;37.632;2022-07-11T07:53:55;98420.03;;;36.60;29.34
72975;BME280;61166;54.228;37.632;2022-07-11T07:56:21;98407.53;;;36.55;29.28
72975;BME280;61166;54.228;37.632;2022-07-11T07:58:47;98417.13;;;36.29;28.76
72975;BME280;61166;54.228;37.632;2022-07-11T08:01:12;98428.13;;;36.78;28.59
72975;BME280;61166;54.228;37.632;2022-07-11T08:03:56;98409.19;;;37.35;28.16
72975;BME280;61166;54.228;37.632;2022-07-11T08:06:21;98413.56;;;35.52;30.19
72975;BME280;61166;54.228;37.632;2022-07-11T08:08:47;98407.41;;;34.70;32.04
72975;BME280;61166;54.228;37.632;2022-07-11T08:11:13;98389.47;;;34.94;31.03
72975;BME280;61166;54.228;37.632;2022-07-11T08:13:38;98404.97;;;35.50;30.61
72975;BME280;61166;54.228;37.632;2022-07-11T08:16:05;98396.38;;;35.52;30.25
72975;BME280;61166;54.228;37.632;2022-07-11T08:18:31;98391.47;;;36.02;30.10
72975;BME280;61166;54.228;37.632;2022-07-11T08:20:56;98387.94;;;36.01;30.46
72975;BME280;61166;54.228;37.632;2022-07-11T08:23:22;98411.22;;;35.47;30.42
72975;BME280;61166;54.228;37.632;2022-07-11T08:25:47;98404.31;;;34.64;31.45
72975;BME280;61166;54.228;37.632;2022-07-11T08:28:13;98394.84;;;33.91;32.21
72975;BME280;61166;54.228;37.632;2022-07-11T08:30:38;98383.03;;;33.65;32.84
72975;BME280;61166;54.228;37.632;2022-07-11T08:33:04;98402.97;;;33.11;32.97
72975;BME280;61166;54.228;37.632;2022-07-11T08:35:29;98388.84;;;32.91;34.40
72975;BME280;61166;54.228;37.632;2022-07-11T08:37:54;98390.75;;;32.84;34.39
72975;BME280;61166;54.228;37.632;2022-07-11T08:40:20;98396.69;;;32.52;35.30
72975;BME280;61166;54.228;37.632;2022-07-11T08:42:46;98419.00;;;32.68;35.34
72975;BME280;61166;54.228;37.632;2022-07-11T08:45:16;98412.97;;;32.48;36.08
72975;BME280;61166;54.228;37.632;2022-07-11T08:47:43;98433.03;;;31.96;36.20
72975;BME280;61166;54.228;37.632;2022-07-11T08:50:09;98457.53;;;32.30;35.48
72975;BME280;61166;54.228;37.632;2022-07-11T08:52:36;98443.38;;;32.54;34.30
72975;BME280;61166;54.228;37.632;2022-07-11T08:55:02;98467.34;;;32.41;35.54
72975;BME280;61166;54.228;37.632;2022-07-11T08:57:35;98446.41;;;32.45;35.17
72975;BME280;61166;54.228;37.632;2022-07-11T09:00:03;98441.81;;;33.59;33.59
72975;BME280;61166;54.228;37.632;2022-07-11T09:02:32;98444.75;;;34.02;33.10
72975;BME280;61166;54.228;37.632;2022-07-11T09:04:58;98462.66;;;33.96;32.91
72975;BME280;61166;54.228;37.632;2022-07-11T09:07:23;98468.09;;;33.92;32.13
72975;BME280;61166;54.228;37.632;2022-07-11T09:09:49;98475.06;;;33.21;33.20
72975;BME280;61166;54.228;37.632;2022-07-11T09:12:15;98453.47;;;33.49;33.26
72975;BME280;61166;54.228;37.632;2022-07-11T09:14:47;98464.75;;;33.55;33.43
72975;BME280;61166;54.228;37.632;2022-07-11T09:17:13;98469.75;;;34.25;31.82
72975;BME280;61166;54.228;37.632;2022-07-11T09:19:39;98426.94;;;35.11;30.72
72975;BME280;61166;54.228;37.632;2022-07-11T09:22:08;98422.81;;;35.87;30.23
72975;BME280;61166;54.228;37.632;2022-07-11T09:27:51;98457.41;;;36.32;28.99
72975;BME280;61166;54.228;37.632;2022-07-11T09:30:25;98427.84;;;35.99;29.51
72975;BME280;61166;54.228;37.632;2022-07-11T09:35:31;98463.91;;;35.80;29.43
72975;BME280;61166;54.228;37.632;2022-07-11T09:37:58;98428.84;;;35.32;29.94
72975;BME280;61166;54.228;37.632;2022-07-11T09:40:24;98475.72;;;35.20;30.45
72975;BME280;61166;54.228;37.632;2022-07-11T09:42:55;98450.38;;;35.08;30.33
72975;BME280;61166;54.228;37.632;2022-07-11T09:45:22;98465.94;;;34.69;30.91
72975;BME280;61166;54.228;37.632;2022-07-11T09:47:52;98454.66;;;34.88;31.36
72975;BME280;61166;54.228;37.632;2022-07-11T09:50:19;98448.78;;;34.75;31.09
72975;BME280;61166;54.228;37.632;2022-07-11T09:55:39;98430.66;;;33.17;32.59
72975;BME280;61166;54.228;37.632;2022-07-11T09:58:06;98449.47;;;32.81;33.07
72975;BME280;61166;54.228;37.632;2022-07-11T10:00:33;98426.66;;;32.56;33.60
72975;BME280;61166;54.228;37.632;2022-07-11T10:03:01;98427.50;;;31.89;34.39
72975;BME280;61166;54.228;37.632;2022-07-11T10:05:27;98440.19;;;31.48;35.13
72975;BME280;61166;54.228;37.632;2022-07-11T10:07:53;98434.03;;;31.25;35.07
72975;BME280;61166;54.228;37.632;2022-07-11T10:10:19;98463.88;;;30.75;35.93
72975;BME280;61166;54.228;37.632;2022-07-11T10:12:45;98441.88;;;30.58;36.30
72975;BME280;61166;54.228;37.632;2022-07-11T10:15:21;98473.66;;;30.38;36.62
72975;BME280;61166;54.228;37.632;2022-07-11T10:20:46;98457.41;;;30.18;37.45
72975;BME280;61166;54.228;37.632;2022-07-11T10:25:47;98480.59;;;29.97;37.92
72975;BME280;61166;54.228;37.632;2022-07-11T10:28:43;98454.78;;;29.83;37.96
72975;BME280;61166;54.228;37.632;2022-07-11T10:31:19;98447.50;;;29.87;38.35
72975;BME280;61166;54.228;37.632;2022-07-11T10:34:03;98483.16;;;29.70;37.72
72975;BME280;61166;54.228;37.632;2022-07-11T10:36:31;98434.28;;;29.86;37.82
72975;BME280;61166;54.228;37.632;2022-07-11T10:39:15;98481.44;;;29.81;38.38
72975;BME280;61166;54.228;37.632;2022-07-11T10:41:50;98424.56;;;30.01;38.38
72975;BME280;61166;54.228;37.632;2022-07-11T10:44:16;98472.00;;;30.52;37.44
72975;BME280;61166;54.228;37.632;2022-07-11T10:46:42;98440.91;;;30.69;37.50
72975;BME280;61166;54.228;37.632;2022-07-11T10:52:04;98426.28;;;31.00;38.23
72975;BME280;61166;54.228;37.632;2022-07-11T11:00:03;98454.69;;;29.99;39.47
72975;BME280;61166;54.228;37.632;2022-07-11T11:02:30;98454.28;;;30.16;39.44
72975;BME280;61166;54.228;37.632;2022-07-11T11:05:00;98439.00;;;30.28;39.65
72975;BME280;61166;54.228;37.632;2022-07-11T11:10:04;98433.38;;;30.59;38.23
72975;BME280;61166;54.228;37.632;2022-07-11T11:15:34;98468.81;;;30.28;38.79
72975;BME280;61166;54.228;37.632;2022-07-11T11:23:40;98446.22;;;30.20;38.66
72975;BME280;61166;54.228;37.632;2022-07-11T11:28:37;98424.22;;;30.25;37.16
72975;BME280;61166;54.228;37.632;2022-07-11T11:31:05;98435.78;;;30.22;37.33
72975;BME280;61166;54.228;37.632;2022-07-11T11:33:35;98455.06;;;30.17;37.07
72975;BME280;61166;54.228;37.632;2022-07-11T11:38:39;98453.34;;;30.09;37.77
72975;BME280;61166;54.228;37.632;2022-07-11T11:41:05;98436.97;;;30.02;38.28
72975;BME280;61166;54.228;37.632;2022-07-11T11:43:32;98424.78;;;30.15;38.99
72975;BME280;61166;54.228;37.632;2022-07-11T11:45:58;98421.78;;;30.20;39.28
72975;BME280;61166;54.228;37.632;2022-07-11T11:48:39;98419.84;;;30.40;38.80
72975;BME280;61166;54.228;37.632;2022-07-11T11:51:17;98423.47;;;30.47;38.69
72975;BME280;61166;54.228;37.632;2022-07-11T11:53:50;98409.03;;;30.43;38.11
72975;BME280;61166;54.228;37.632;2022-07-11T11:56:19;98425.69;;;30.65;37.44
72975;BME280;61166;54.228;37.632;2022-07-11T11:58:49;98444.44;;;30.50;36.64
72975;BME280;61166;54.228;37.632;2022-07-11T12:01:26;98452.16;;;30.48;36.72
72975;BME280;61166;54.228;37.632;2022-07-11T12:06:38;98431.38;;;30.79;37.36
72975;BME280;61166;54.228;37.632;2022-07-11T12:09:10;98421.16;;;30.95;37.13
72975;BME280;61166;54.228;37.632;2022-07-11T12:11:41;98431.81;;;31.07;36.97
72975;BME280;61166;54.228;37.632;2022-07-11T12:14:08;98420.78;;;30.97;38.09
72975;BME280;61166;54.228;37.632;2022-07-11T12:16:35;98437.63;;;30.83;38.43
72975;BME280;61166;54.228;37.632;2022-07-11T12:21:42;98420.84;;;31.00;37.77
72975;BME280;61166;54.228;37.632;2022-07-11T12:24:10;98422.66;;;31.15;37.43
72975;BME280;61166;54.228;37.632;2022-07-11T12:26:39;98439.56;;;31.05;37.34
72975;BME280;61166;54.228;37.632;2022-07-11T12:34:05;98432.19;;;31.32;36.73
72975;BME280;61166;54.228;37.632;2022-07-11T12:36:32;98429.91;;;31.34;36.39
72975;BME280;61166;54.228;37.632;2022-07-11T12:38:57;98472.53;;;31.30;35.43
72975;BME280;61166;54.228;37.632;2022-07-11T12:41:23;98443.41;;;31.04;35.71
72975;BME280;61166;54.228;37.632;2022-07-11T12:43:52;98441.97;;;30.87;36.16
72975;BME280;61166;54.228;37.632;2022-07-11T12:46:38;98450.06;;;30.84;35.44
72975;BME280;61166;54.228;37.632;2022-07-11T12:49:05;98436.06;;;30.82;35.78
72975;BME280;61166;54.228;37.632;2022-07-11T12:54:04;98470.97;;;30.57;35.60
72975;BME280;61166;54.228;37.632;2022-07-11T12:56:30;98446.91;;;30.36;35.91
72975;BME280;61166;54.228;37.632;2022-07-11T12:58:57;98471.41;;;30.20;36.33
72975;BME280;61166;54.228;37.632;2022-07-11T13:01:22;98447.50;;;30.07;36.86
72975;BME280;61166;54.228;37.632;2022-07-11T13:03:48;98442.84;;;30.27;36.91
72975;BME280;61166;54.228;37.632;2022-07-11T13:06:15;98456.97;;;30.16;37.08
72975;BME280;61166;54.228;37.632;2022-07-11T13:08:40;98453.75;;;30.30;37.06
72975;BME280;61166;54.228;37.632;2022-07-11T13:11:19;98457.94;;;30.47;37.62
72975;BME280;61166;54.228;37.632;2022-07-11T13:13:45;98466.31;;;30.38;38.06
72975;BME280;61166;54.228;37.632;2022-07-11T13:16:15;98459.91;;;30.27;38.79
72975;BME280;61166;54.228;37.632;2022-07-11T13:18:41;98456.63;;;30.18;39.22
72975;BME280;61166;54.228;37.632;2022-07-11T13:21:06;98456.50;;;30.11;39.37
72975;BME280;61166;54.228;37.632;2022-07-11T13:23:35;98457.78;;;29.98;40.12
72975;BME280;61166;54.228;37.632;2022-07-11T13:26:02;98443.53;;;30.01;39.97
72975;BME280;61166;54.228;37.632;2022-07-11T13:28:27;98442.44;;;29.86;40.39
72975;BME280;61166;54.228;37.632;2022-07-11T13:30:53;98440.56;;;29.90;40.23
72975;BME280;61166;54.228;37.632;2022-07-11T13:33:19;98441.38;;;29.90;39.88
72975;BME280;61166;54.228;37.632;2022-07-11T13:35:46;98434.44;;;29.93;39.00
72975;BME280;61166;54.228;37.632;2022-07-11T13:38:12;98424.66;;;30.08;39.34
72975;BME280;61166;54.228;37.632;2022-07-11T13:40:37;98423.22;;;30.14;38.65